CheckWX is a tool to help pilots better visualize weather data.  It is not intended as a substitute for an official pre-flight weather briefing.

07:34:24 UTC

KHZL METAR
Hazleton Regional Airport
Hazleton, Pennsylvania, USA
Current

19 mins ago

KHZL 060715Z AUTO 00000KT 10SM CLR M02/M06 A3010 RMK AO2
Observed
Dec-6 @ 07:15 UTC
Visibility
10 SM
Flight Rules
VFR
Cloud Levels
  • Clear skies
Temperature
-2°C / 28°F
Dewpoint
-6°C / 21°F
Humidity
74%
Altimeter
30.1" Hg
Pressure
1019.32 hPa
Previous

37 mins ago

KHZL 060657Z AUTO 00000KT 10SM SCT030 M01/M06 A3010 RMK AO2
Observed
Dec-6 @ 06:57 UTC
Visibility
10 SM
Flight Rules
VFR
Cloud Levels
  • Scattered at 3,000' AGL
Temperature
-1°C / 30°F
Dewpoint
-6°C / 21°F
Humidity
69%
Altimeter
30.1" Hg
Pressure
1019.32 hPa
Previous

55 mins ago

KHZL 060639Z AUTO 29003KT 10SM OVC030 00/M06 A3009 RMK AO2
Observed
Dec-6 @ 06:39 UTC
Wind
  • 290° at 3 KTS
Visibility
10 SM
Flight Rules
MVFR
Cloud Levels
  • Overcast at 3,000' AGL
Temperature
C / 32°F
Dewpoint
-6°C / 21°F
Humidity
64%
Altimeter
30.09" Hg
Pressure
1018.92 hPa